createdAt,value
2024-04-23T00:01:06.510Z,4.97
2024-04-23T00:03:33.229Z,5.20
2024-04-23T00:06:00.018Z,5.70
2024-04-23T00:08:27.015Z,5.53
2024-04-23T00:10:53.960Z,5.22
2024-04-23T00:13:20.847Z,5.45
2024-04-23T00:15:47.743Z,5.10
2024-04-23T00:18:14.602Z,4.45
2024-04-23T00:20:41.399Z,4.88
2024-04-23T00:23:08.067Z,5.05
2024-04-23T00:25:34.793Z,5.18
2024-04-23T00:28:01.642Z,4.25
2024-04-23T00:30:28.492Z,4.93
2024-04-23T00:32:55.263Z,5.03
2024-04-23T00:35:22.132Z,5.10
2024-04-23T00:37:49.129Z,5.30
2024-04-23T00:40:15.798Z,5.38
2024-04-23T00:42:42.690Z,5.55
2024-04-23T00:45:10.879Z,5.38
2024-04-23T00:47:37.767Z,5.32
2024-04-23T00:50:04.742Z,5.25
2024-04-23T00:52:32.391Z,5.55
2024-04-23T00:54:59.481Z,5.38
2024-04-23T00:57:26.413Z,5.80
2024-04-23T00:59:53.627Z,5.63
2024-04-23T01:02:20.509Z,5.28
2024-04-23T01:04:47.555Z,5.90
2024-04-23T01:07:14.482Z,5.43
2024-04-23T01:09:41.318Z,5.40
2024-04-23T01:12:08.315Z,5.30
2024-04-23T01:14:38.429Z,5.75
2024-04-23T01:17:06.361Z,5.75
2024-04-23T01:19:40.779Z,5.45
2024-04-23T01:22:16.014Z,6.20
2024-04-23T01:25:07.308Z,5.50
2024-04-23T01:27:35.000Z,5.23
2024-04-23T01:30:02.102Z,5.72
2024-04-23T01:32:30.886Z,5.78
2024-04-23T01:35:09.563Z,5.70
2024-04-23T01:37:37.431Z,5.20
2024-04-23T01:40:05.196Z,4.97
2024-04-23T01:42:33.654Z,5.18
2024-04-23T01:45:01.686Z,4.90
2024-04-23T01:47:28.707Z,4.82
2024-04-23T01:49:56.737Z,4.82
2024-04-23T01:52:23.832Z,4.88
2024-04-23T01:54:50.892Z,4.70
2024-04-23T01:57:18.546Z,4.80
2024-04-23T01:59:54.911Z,5.07
2024-04-23T02:02:22.675Z,4.82
2024-04-23T02:04:49.862Z,4.50
2024-04-23T02:07:18.054Z,5.20
2024-04-23T02:09:47.120Z,4.55
2024-04-23T02:12:18.249Z,4.68
2024-04-23T02:14:44.941Z,4.30
2024-04-23T02:17:12.915Z,4.80
2024-04-23T02:19:39.904Z,4.63
2024-04-23T02:22:06.764Z,4.80
2024-04-23T02:24:33.508Z,5.15
2024-04-23T02:27:00.699Z,4.65
2024-04-23T02:29:27.534Z,4.72
2024-04-23T02:31:54.325Z,4.22
2024-04-23T02:34:21.281Z,4.38
2024-04-23T02:36:48.102Z,4.50
2024-04-23T02:39:14.902Z,4.88
2024-04-23T02:41:51.868Z,4.25
2024-04-23T02:44:19.287Z,4.60
2024-04-23T02:46:46.789Z,5.00
2024-04-23T02:49:13.633Z,5.03
2024-04-23T02:51:50.441Z,4.53
2024-04-23T02:54:17.214Z,4.50
2024-04-23T02:56:49.206Z,5.20
2024-04-23T02:59:16.585Z,5.00
2024-04-23T03:01:43.262Z,4.45
2024-04-23T03:04:10.167Z,4.75
2024-04-23T03:06:36.901Z,4.60
2024-04-23T03:09:04.011Z,4.63
2024-04-23T03:11:31.086Z,4.72
2024-04-23T03:13:57.923Z,4.63
2024-04-23T03:16:24.990Z,4.68
2024-04-23T03:18:51.704Z,5.40
2024-04-23T03:21:18.589Z,5.55
2024-04-23T03:23:45.391Z,5.10
2024-04-23T03:26:12.305Z,5.60
2024-04-23T03:28:39.090Z,5.70
2024-04-23T03:31:05.961Z,5.35
2024-04-23T03:33:32.821Z,6.00
2024-04-23T03:35:59.638Z,6.55
2024-04-23T03:38:26.631Z,6.82
2024-04-23T03:40:53.387Z,5.50
2024-04-23T03:43:20.168Z,5.43
2024-04-23T03:45:47.010Z,4.80
2024-04-23T03:48:13.999Z,5.65
2024-04-23T03:50:40.717Z,5.32
2024-04-23T03:53:07.573Z,4.80
2024-04-23T03:55:34.368Z,5.30
2024-04-23T03:58:01.242Z,5.10
2024-04-23T04:00:28.939Z,5.28
2024-04-23T04:03:14.304Z,5.38
2024-04-23T04:05:59.618Z,5.70
2024-04-23T04:08:26.406Z,5.47
2024-04-23T04:10:53.318Z,5.32
2024-04-23T04:13:23.901Z,5.82
2024-04-23T04:15:51.969Z,4.97
2024-04-23T04:18:19.845Z,5.80
2024-04-23T04:20:47.053Z,5.70
2024-04-23T04:23:13.850Z,5.35
2024-04-23T04:25:40.810Z,6.07
2024-04-23T04:28:07.745Z,5.50
2024-04-23T04:30:34.425Z,5.90
2024-04-23T04:33:01.401Z,5.68
2024-04-23T04:35:28.379Z,5.75
2024-04-23T04:37:56.396Z,5.50
2024-04-23T04:40:23.361Z,5.38
2024-04-23T04:42:52.210Z,6.38
2024-04-23T04:45:19.656Z,5.93
2024-04-23T04:47:50.346Z,5.40
2024-04-23T04:50:20.791Z,6.20
2024-04-23T04:52:47.948Z,5.80
2024-04-23T04:55:14.851Z,5.63
2024-04-23T04:57:41.850Z,6.32
2024-04-23T05:00:09.261Z,5.65
2024-04-23T05:02:36.012Z,6.22
2024-04-23T05:05:03.036Z,6.18
2024-04-23T05:07:29.984Z,5.88
2024-04-23T05:09:57.112Z,5.93
2024-04-23T05:12:23.980Z,6.13
2024-04-23T05:14:50.818Z,6.47
2024-04-23T05:17:17.630Z,6.10
2024-04-23T05:19:45.969Z,6.07
2024-04-23T05:22:13.351Z,5.90
2024-04-23T05:24:40.492Z,6.25
2024-04-23T05:27:07.538Z,6.30
2024-04-23T05:29:34.283Z,6.45
2024-04-23T05:32:19.687Z,6.55
2024-04-23T05:34:46.705Z,6.97
2024-04-23T05:37:13.603Z,6.63
2024-04-23T05:39:40.379Z,6.97
2024-04-23T05:42:07.293Z,6.93
2024-04-23T05:44:34.113Z,7.18
2024-04-23T05:47:01.056Z,7.63
2024-04-23T05:50:05.578Z,6.57
2024-04-23T05:53:10.044Z,7.38
2024-04-23T05:55:39.727Z,7.68
2024-04-23T05:58:06.954Z,7.07
2024-04-23T06:00:34.580Z,7.70
2024-04-23T06:03:02.157Z,6.78
2024-04-23T06:05:29.209Z,7.93
2024-04-23T06:07:56.807Z,7.18
2024-04-23T06:10:23.691Z,7.47
2024-04-23T06:12:51.342Z,6.95
2024-04-23T06:15:19.216Z,8.32
2024-04-23T06:17:48.274Z,7.88
2024-04-23T06:20:16.162Z,7.82
2024-04-23T06:22:44.125Z,8.07
2024-04-23T06:25:11.678Z,8.38
2024-04-23T06:27:40.038Z,8.00
2024-04-23T06:30:07.939Z,7.40
2024-04-23T06:32:34.910Z,7.03
2024-04-23T06:35:03.734Z,6.95
2024-04-23T06:37:30.924Z,6.35
2024-04-23T06:40:03.285Z,5.78
2024-04-23T06:42:30.181Z,7.40
2024-04-23T06:44:58.879Z,7.10
2024-04-23T06:47:26.205Z,6.53
2024-04-23T06:49:53.121Z,6.38
2024-04-23T06:52:19.924Z,6.13
2024-04-23T06:54:46.775Z,6.45
2024-04-23T06:57:14.287Z,7.15
2024-04-23T06:59:44.275Z,7.35
2024-04-23T07:02:12.568Z,7.07
2024-04-23T07:04:39.728Z,7.85
2024-04-23T07:07:07.005Z,7.20
2024-04-23T07:09:34.139Z,6.53
2024-04-23T07:12:00.989Z,6.63
2024-04-23T07:14:27.690Z,5.93
2024-04-23T07:16:54.624Z,5.63
2024-04-23T07:19:21.322Z,6.00
2024-04-23T07:21:48.359Z,6.32
2024-04-23T07:24:15.060Z,5.70
2024-04-23T07:26:43.448Z,5.88
2024-04-23T07:29:10.433Z,6.35
2024-04-23T07:31:37.552Z,6.00
2024-04-23T07:34:04.617Z,6.53
2024-04-23T07:36:31.488Z,5.88
2024-04-23T07:38:58.320Z,7.32
2024-04-23T07:41:25.058Z,7.03
2024-04-23T07:43:52.033Z,7.38
2024-04-23T07:46:18.805Z,6.80
2024-04-23T07:48:45.659Z,6.13
2024-04-23T07:51:12.440Z,5.55
2024-04-23T07:53:39.356Z,5.28
2024-04-23T07:56:08.672Z,5.72
2024-04-23T07:58:39.346Z,3.85
2024-04-23T08:01:06.988Z,5.10
2024-04-23T08:03:35.606Z,5.32
2024-04-23T08:06:03.643Z,5.75
2024-04-23T08:08:30.525Z,5.18
2024-04-23T08:10:57.411Z,4.18
2024-04-23T08:13:24.243Z,3.83
2024-04-23T08:15:51.062Z,4.50
2024-04-23T08:18:17.974Z,5.30
2024-04-23T08:20:44.700Z,7.80
2024-04-23T08:23:11.611Z,7.13
2024-04-23T08:25:38.404Z,7.93
2024-04-23T08:28:05.476Z,7.03
2024-04-23T08:30:33.543Z,7.38
2024-04-23T08:33:00.684Z,7.13
2024-04-23T08:35:27.825Z,7.57
2024-04-23T08:37:54.788Z,5.22
2024-04-23T08:40:22.480Z,5.05
2024-04-23T08:42:53.465Z,7.38
2024-04-23T08:45:26.222Z,6.95
2024-04-23T08:47:53.590Z,9.63
2024-04-23T08:50:23.226Z,9.00
2024-04-23T08:52:50.783Z,8.43
2024-04-23T08:55:18.167Z,7.60
2024-04-23T08:57:45.525Z,8.43
2024-04-23T09:00:13.207Z,6.60
2024-04-23T09:02:42.316Z,6.88
2024-04-23T09:05:10.371Z,7.53
2024-04-23T09:07:38.527Z,7.43
2024-04-23T09:10:07.489Z,6.18
2024-04-23T09:12:35.205Z,6.25
2024-04-23T09:15:02.661Z,6.22
2024-04-23T09:17:33.692Z,5.07
2024-04-23T09:20:06.054Z,5.70
2024-04-23T09:22:33.000Z,5.38
2024-04-23T09:25:06.034Z,5.93
2024-04-23T09:27:38.040Z,5.60
2024-04-23T09:30:05.547Z,8.13
2024-04-23T09:32:32.924Z,7.38
2024-04-23T09:35:00.194Z,8.15
2024-04-23T09:37:27.258Z,7.30
2024-04-23T09:40:02.401Z,8.25
2024-04-23T09:42:29.308Z,7.63
2024-04-23T09:44:56.125Z,7.90
2024-04-23T09:47:26.959Z,7.68
2024-04-23T09:49:55.969Z,7.05
2024-04-23T09:52:34.297Z,7.28
2024-04-23T09:55:02.164Z,7.90
2024-04-23T09:57:29.050Z,7.18
2024-04-23T09:59:55.942Z,7.35
2024-04-23T10:02:30.657Z,6.35
2024-04-23T10:05:08.861Z,6.10
2024-04-23T10:07:53.622Z,5.53
2024-04-23T10:10:27.341Z,6.03
2024-04-23T10:12:57.225Z,5.15
2024-04-23T10:15:33.002Z,5.30
2024-04-23T10:18:25.852Z,5.13
2024-04-23T10:20:54.370Z,5.20
2024-04-23T10:23:21.694Z,4.28
2024-04-23T10:25:49.382Z,4.75
2024-04-23T10:28:16.956Z,5.50
2024-04-23T10:30:44.123Z,5.38
2024-04-23T10:33:13.503Z,5.00
2024-04-23T10:35:40.852Z,4.80
2024-04-23T10:38:09.997Z,5.10
2024-04-23T10:40:46.223Z,4.63
2024-04-23T10:43:19.920Z,4.90
2024-04-23T10:45:47.085Z,4.63
2024-04-23T10:48:14.049Z,5.05
2024-04-23T10:50:40.956Z,4.43
2024-04-23T10:53:09.347Z,4.53
2024-04-23T10:55:36.752Z,4.55
2024-04-23T10:58:03.658Z,4.60
2024-04-23T11:00:38.445Z,5.45
2024-04-23T11:03:18.600Z,5.20
2024-04-23T11:05:49.738Z,4.90
2024-04-23T11:08:27.511Z,4.45
2024-04-23T11:11:00.156Z,4.82
2024-04-23T11:13:45.752Z,4.47
2024-04-23T11:16:21.280Z,5.05
2024-04-23T11:18:54.140Z,4.28
2024-04-23T11:21:32.437Z,5.03
2024-04-23T11:24:07.465Z,4.85
2024-04-23T11:26:37.241Z,5.00
2024-04-23T11:29:10.451Z,4.53
2024-04-23T11:31:37.629Z,5.13
2024-04-23T11:34:04.767Z,4.93
2024-04-23T11:36:36.385Z,4.80
2024-04-23T11:39:08.817Z,5.13
2024-04-23T11:41:35.486Z,4.95
2024-04-23T11:44:03.009Z,4.65
2024-04-23T11:46:33.469Z,4.32
2024-04-23T11:49:00.146Z,4.70
2024-04-23T11:51:26.891Z,4.05
2024-04-23T11:53:56.042Z,4.53
2024-04-23T11:56:23.735Z,4.60
2024-04-23T11:58:50.431Z,4.50
2024-04-23T12:01:17.093Z,4.20
2024-04-23T12:03:44.716Z,4.70
2024-04-23T12:06:12.419Z,4.95
2024-04-23T12:08:39.949Z,4.43
2024-04-23T12:11:07.346Z,4.22
2024-04-23T12:13:34.374Z,4.68
2024-04-23T12:16:05.500Z,4.50
2024-04-23T12:18:32.365Z,4.20
2024-04-23T12:20:59.162Z,4.15
2024-04-23T12:23:26.562Z,4.20
2024-04-23T12:25:54.056Z,4.10
2024-04-23T12:28:22.028Z,4.05
2024-04-23T12:30:48.782Z,4.00
2024-04-23T12:33:15.753Z,4.05
2024-04-23T12:35:43.408Z,4.25
2024-04-23T12:38:14.354Z,3.78
2024-04-23T12:40:41.665Z,4.03
2024-04-23T12:43:12.405Z,3.80
2024-04-23T12:45:39.831Z,4.03
2024-04-23T12:48:06.881Z,3.83
2024-04-23T12:50:33.807Z,4.00
2024-04-23T12:53:00.960Z,3.70
2024-04-23T12:55:29.185Z,4.50
2024-04-23T12:57:55.930Z,4.05
2024-04-23T13:00:22.543Z,4.07
2024-04-23T13:02:49.256Z,4.15
2024-04-23T13:05:16.076Z,3.97
2024-04-23T13:07:42.729Z,4.25
2024-04-23T13:10:09.521Z,4.10
2024-04-23T13:12:36.142Z,4.35
2024-04-23T13:15:02.833Z,4.57
2024-04-23T13:17:29.505Z,4.13
2024-04-23T13:20:00.443Z,4.00
2024-04-23T13:24:54.719Z,4.53
2024-04-23T13:27:21.378Z,4.40
2024-04-23T13:29:48.150Z,4.10
2024-04-23T13:32:15.030Z,3.67
2024-04-23T13:34:41.858Z,3.92
2024-04-23T13:37:08.664Z,3.88
2024-04-23T13:39:35.375Z,3.60
2024-04-23T13:42:02.431Z,3.92
2024-04-23T13:44:33.997Z,3.85
2024-04-23T13:47:01.319Z,4.07
2024-04-23T13:49:28.027Z,3.75
2024-04-23T13:51:54.651Z,4.00
2024-04-23T13:54:21.263Z,3.78
2024-04-23T13:56:48.011Z,4.10
2024-04-23T13:59:17.197Z,3.70
2024-04-23T14:01:44.396Z,4.38
2024-04-23T14:04:12.180Z,3.63
2024-04-23T14:06:38.901Z,3.80
2024-04-23T14:09:05.960Z,3.92
2024-04-23T14:11:32.906Z,4.07
2024-04-23T14:13:59.668Z,4.03
2024-04-23T14:16:26.426Z,4.28
2024-04-23T14:18:53.573Z,4.10
2024-04-23T14:21:20.497Z,4.50
2024-04-23T14:23:47.187Z,3.97
2024-04-23T14:26:18.312Z,4.05
2024-04-23T14:28:45.370Z,4.10
2024-04-23T14:31:12.105Z,3.90
2024-04-23T14:33:44.818Z,4.30
2024-04-23T14:36:13.141Z,3.80
2024-04-23T14:38:40.870Z,3.72
2024-04-23T14:41:08.348Z,4.25
2024-04-23T14:43:35.321Z,4.20
2024-04-23T14:46:12.842Z,4.22
2024-04-23T14:48:40.261Z,4.07
2024-04-23T14:51:07.154Z,4.38
2024-04-23T14:53:34.148Z,4.28
2024-04-23T14:56:02.198Z,4.50
2024-04-23T14:58:30.251Z,4.13
2024-04-23T15:00:57.551Z,4.35
2024-04-23T15:03:24.691Z,4.32
2024-04-23T15:05:51.477Z,5.00
2024-04-23T15:08:18.291Z,4.63
2024-04-23T15:10:53.902Z,4.53
2024-04-23T15:13:23.220Z,5.13
2024-04-23T15:16:02.178Z,4.68
2024-04-23T15:18:33.060Z,5.10
2024-04-23T15:21:08.648Z,4.90
2024-04-23T15:23:35.923Z,4.97
2024-04-23T15:26:03.331Z,5.18
2024-04-23T15:28:34.696Z,4.82
2024-04-23T15:31:02.294Z,4.45
2024-04-23T15:33:29.656Z,4.68
2024-04-23T15:36:09.449Z,4.57
2024-04-23T15:38:37.304Z,4.40
2024-04-23T15:41:05.191Z,4.97
2024-04-23T15:43:32.771Z,4.40
2024-04-23T15:46:00.024Z,4.68
2024-04-23T15:48:29.704Z,4.55
2024-04-23T15:51:00.487Z,4.57
2024-04-23T15:53:30.235Z,4.93
2024-04-23T15:56:01.107Z,4.80
2024-04-23T15:58:31.817Z,4.82
2024-04-23T16:01:09.616Z,4.72
2024-04-23T16:03:37.595Z,5.13
2024-04-23T16:06:05.522Z,4.70
2024-04-23T16:08:33.606Z,4.30
2024-04-23T16:11:02.291Z,4.53
2024-04-23T16:13:30.066Z,5.03
2024-04-23T16:15:58.094Z,4.53
2024-04-23T16:18:27.194Z,4.15
2024-04-23T16:20:54.341Z,3.92
2024-04-23T16:23:22.372Z,4.57
2024-04-23T16:25:49.034Z,4.30
2024-04-23T16:28:15.711Z,4.40
2024-04-23T16:30:43.797Z,4.80
2024-04-23T16:33:10.880Z,4.22
2024-04-23T16:35:40.158Z,4.38
2024-04-23T16:38:07.793Z,4.32
2024-04-23T16:40:34.470Z,4.40
2024-04-23T16:43:01.065Z,4.53
2024-04-23T16:45:27.762Z,4.57
2024-04-23T16:47:54.420Z,4.18
2024-04-23T16:50:21.219Z,4.20
2024-04-23T16:52:47.864Z,4.13
2024-04-23T16:55:14.521Z,4.07
2024-04-23T16:57:43.125Z,4.18
2024-04-23T17:00:10.258Z,4.28
2024-04-23T17:02:36.951Z,4.30
2024-04-23T17:05:03.833Z,4.65
2024-04-23T17:07:32.208Z,4.82
2024-04-23T17:09:59.158Z,4.40
2024-04-23T17:12:26.276Z,4.30
2024-04-23T17:14:52.857Z,4.47
2024-04-23T17:17:19.567Z,3.88
2024-04-23T17:19:46.294Z,4.00
2024-04-23T17:22:12.892Z,4.28
2024-04-23T17:24:39.541Z,4.10
2024-04-23T17:27:06.230Z,4.20
2024-04-23T17:29:32.864Z,3.92
2024-04-23T17:32:01.618Z,4.00
2024-04-23T17:34:31.215Z,4.32
2024-04-23T17:36:58.594Z,4.50
2024-04-23T17:39:25.317Z,4.30
2024-04-23T17:41:52.233Z,4.35
2024-04-23T17:44:18.987Z,4.43
2024-04-23T17:46:45.873Z,4.30
2024-04-23T17:49:12.837Z,4.43
2024-04-23T17:51:39.485Z,4.70
2024-04-23T17:54:06.218Z,4.88
2024-04-23T17:56:33.373Z,4.30
2024-04-23T17:59:00.268Z,4.13
2024-04-23T18:01:26.870Z,4.35
2024-04-23T18:03:53.561Z,4.50
2024-04-23T18:06:20.238Z,4.43
2024-04-23T18:08:46.917Z,5.13
2024-04-23T18:11:15.908Z,4.90
2024-04-23T18:13:42.660Z,5.18
2024-04-23T18:16:10.544Z,5.45
2024-04-23T18:18:37.379Z,5.50
2024-04-23T18:21:04.650Z,6.00
2024-04-23T18:23:35.398Z,5.85
2024-04-23T18:26:02.150Z,6.32
2024-04-23T18:28:34.193Z,7.28
2024-04-23T18:31:04.875Z,7.40
2024-04-23T18:33:31.664Z,7.22
2024-04-23T18:36:05.404Z,7.32
2024-04-23T18:38:32.907Z,7.32
2024-04-23T18:41:13.422Z,7.55
2024-04-23T18:43:40.520Z,6.88
2024-04-23T18:46:17.160Z,6.85
2024-04-23T18:48:47.658Z,6.35
2024-04-23T18:51:15.057Z,7.05
2024-04-23T18:53:42.696Z,6.88
2024-04-23T18:56:13.948Z,6.53
2024-04-23T18:58:41.132Z,6.63
2024-04-23T19:01:15.340Z,6.38
2024-04-23T19:03:42.620Z,6.55
2024-04-23T19:06:12.777Z,7.15
2024-04-23T19:08:39.585Z,7.13
2024-04-23T19:11:06.387Z,7.82
2024-04-23T19:13:32.998Z,7.90
2024-04-23T19:16:09.571Z,7.28
2024-04-23T19:18:36.472Z,8.07
2024-04-23T19:21:03.461Z,7.63
2024-04-23T19:23:30.165Z,7.88
2024-04-23T19:26:01.168Z,9.00
2024-04-23T19:28:27.891Z,8.43
2024-04-23T19:30:56.005Z,7.57
2024-04-23T19:33:22.815Z,7.55
2024-04-23T19:35:51.901Z,7.32
2024-04-23T19:38:19.715Z,7.43
2024-04-23T19:40:46.472Z,7.20
2024-04-23T19:43:13.134Z,6.25
2024-04-23T19:45:39.781Z,5.25
2024-04-23T19:48:06.613Z,4.70
2024-04-23T19:50:33.213Z,5.28
2024-04-23T19:52:59.828Z,5.15
2024-04-23T19:55:26.469Z,5.85
2024-04-23T19:58:11.741Z,6.05
2024-04-23T20:00:41.277Z,6.55
2024-04-23T20:03:08.545Z,6.25
2024-04-23T20:05:36.032Z,6.57
2024-04-23T20:08:02.696Z,6.88
2024-04-23T20:10:29.394Z,7.75
2024-04-23T20:12:55.981Z,6.75
2024-04-23T20:15:22.604Z,5.88
2024-04-23T20:17:49.436Z,6.65
2024-04-23T20:20:16.230Z,7.78
2024-04-23T20:22:42.935Z,9.20
2024-04-23T20:25:09.546Z,7.53
2024-04-23T20:27:36.229Z,8.95
2024-04-23T20:30:03.723Z,8.85
2024-04-23T20:32:30.406Z,6.78
2024-04-23T20:34:57.111Z,6.35
2024-04-23T20:37:23.710Z,5.75
2024-04-23T20:39:50.354Z,7.18
2024-04-23T20:42:16.952Z,5.82
2024-04-23T20:44:43.661Z,6.68
2024-04-23T20:47:10.388Z,5.68
2024-04-23T20:49:37.044Z,5.57
2024-04-23T20:52:03.731Z,5.40
2024-04-23T20:54:30.303Z,5.40
2024-04-23T20:56:56.926Z,5.53
2024-04-23T20:59:23.952Z,5.43
2024-04-23T21:01:50.639Z,5.95
2024-04-23T21:04:17.344Z,5.20
2024-04-23T21:06:44.072Z,5.20
2024-04-23T21:09:10.943Z,5.45
2024-04-23T21:11:40.330Z,5.50
2024-04-23T21:14:07.557Z,5.70
2024-04-23T21:16:34.355Z,4.80
2024-04-23T21:19:01.056Z,5.00
2024-04-23T21:21:27.678Z,5.10
2024-04-23T21:23:54.313Z,5.95
2024-04-23T21:26:21.192Z,5.22
2024-04-23T21:28:48.107Z,6.38
2024-04-23T21:31:14.770Z,5.80
2024-04-23T21:33:41.497Z,5.70
2024-04-23T21:36:09.697Z,9.27
2024-04-23T21:38:37.748Z,6.30
2024-04-23T21:41:09.623Z,7.57
2024-04-23T21:43:37.513Z,7.03
2024-04-23T21:46:13.014Z,6.57
2024-04-23T21:48:39.741Z,6.50
2024-04-23T21:51:10.602Z,6.47
2024-04-23T21:53:37.845Z,5.93
2024-04-23T21:56:06.286Z,6.60
2024-04-23T21:58:37.800Z,6.78
2024-04-23T22:01:19.633Z,7.20
2024-04-23T22:03:47.322Z,6.53
2024-04-23T22:06:14.520Z,7.72
2024-04-23T22:08:41.516Z,6.82
2024-04-23T22:11:08.288Z,7.15
2024-04-23T22:13:35.367Z,7.85
2024-04-23T22:16:02.192Z,7.45
2024-04-23T22:18:29.037Z,8.05
2024-04-23T22:20:55.799Z,7.60
2024-04-23T22:23:25.136Z,7.45
2024-04-23T22:25:51.900Z,7.97
2024-04-23T22:28:18.718Z,7.35
2024-04-23T22:30:46.633Z,7.57
2024-04-23T22:33:13.586Z,8.60
2024-04-23T22:35:40.507Z,8.25
2024-04-23T22:38:07.144Z,7.97
2024-04-23T22:40:33.781Z,9.07
2024-04-23T22:43:00.382Z,8.63
2024-04-23T22:45:29.231Z,8.25
2024-04-23T22:47:56.128Z,9.40
2024-04-23T22:50:22.985Z,9.70
2024-04-23T22:52:49.934Z,9.02
2024-04-23T22:55:16.603Z,9.05
2024-04-23T22:57:43.264Z,9.00
2024-04-23T23:00:10.536Z,9.35
2024-04-23T23:02:37.268Z,8.80
2024-04-23T23:05:04.147Z,9.00
2024-04-23T23:07:30.859Z,8.30
2024-04-23T23:09:57.478Z,8.85
2024-04-23T23:12:24.109Z,7.95
2024-04-23T23:14:50.932Z,8.38
2024-04-23T23:17:20.557Z,8.57
2024-04-23T23:19:47.304Z,8.68
2024-04-23T23:22:13.984Z,9.05
2024-04-23T23:24:40.634Z,9.10
2024-04-23T23:27:07.279Z,8.77
2024-04-23T23:29:33.923Z,9.02
2024-04-23T23:32:00.617Z,8.55
2024-04-23T23:34:27.292Z,8.75
2024-04-23T23:36:53.924Z,9.30
2024-04-23T23:39:20.533Z,10.40
2024-04-23T23:41:47.193Z,10.27
2024-04-23T23:44:13.863Z,10.23
2024-04-23T23:46:40.695Z,10.75
2024-04-23T23:49:07.310Z,11.20
2024-04-23T23:51:34.056Z,10.70
2024-04-23T23:54:00.790Z,11.18
2024-04-23T23:56:27.393Z,11.57
2024-04-23T23:58:54.090Z,12.18
